createdAt,value
2022-10-14T00:00:54.619Z,100999.22
2022-10-14T00:05:04.605Z,100997.38
2022-10-14T00:09:08.736Z,100989.34
2022-10-14T00:13:10.451Z,100989.94
2022-10-14T00:17:12.263Z,100990.53
2022-10-14T00:21:14.245Z,101000.66
2022-10-14T00:25:16.121Z,100995.38
2022-10-14T00:29:19.038Z,100990.88
2022-10-14T00:33:21.486Z,100992.50
2022-10-14T00:37:23.815Z,100984.44
2022-10-14T00:41:31.920Z,100980.75
2022-10-14T00:45:34.786Z,100990.84
2022-10-14T00:49:40.436Z,100992.91
2022-10-14T00:53:43.678Z,100989.69
2022-10-14T00:57:45.956Z,100995.38
2022-10-14T01:01:47.936Z,100975.03
2022-10-14T01:06:22.854Z,100967.09
2022-10-14T01:10:43.596Z,100974.06
2022-10-14T01:14:51.711Z,100986.53
2022-10-14T01:19:13.336Z,100973.41
2022-10-14T01:23:40.490Z,100979.31
2022-10-14T01:27:48.332Z,100964.66
2022-10-14T01:32:02.647Z,100959.84
2022-10-14T01:36:11.042Z,100949.66
2022-10-14T01:40:17.511Z,100947.25
2022-10-14T01:44:23.231Z,100932.94
2022-10-14T01:48:31.139Z,100940.03
2022-10-14T01:52:38.510Z,100934.09
2022-10-14T01:56:43.177Z,100944.56
2022-10-14T02:00:47.829Z,100957.38
2022-10-14T02:04:49.810Z,100956.16
2022-10-14T02:09:07.407Z,100948.13
2022-10-14T02:13:28.329Z,100936.84
2022-10-14T02:17:42.980Z,100941.06
2022-10-14T02:22:00.273Z,100934.03
2022-10-14T02:26:03.938Z,100932.47
2022-10-14T02:30:07.657Z,100932.28
2022-10-14T02:34:12.776Z,100929.00
2022-10-14T02:38:15.816Z,100919.47
2022-10-14T02:42:17.813Z,100921.06
2022-10-14T02:46:21.630Z,100911.50
2022-10-14T02:50:23.412Z,100921.72
2022-10-14T02:54:26.941Z,100916.19
2022-10-14T02:58:28.711Z,100903.84
2022-10-14T03:02:31.891Z,100915.75
2022-10-14T03:06:34.263Z,100914.91
2022-10-14T03:10:36.330Z,100903.53
2022-10-14T03:14:38.116Z,100898.25
2022-10-14T03:18:42.157Z,100905.22
2022-10-14T03:22:54.295Z,100897.19
2022-10-14T03:26:57.567Z,100907.72
2022-10-14T03:31:00.935Z,100903.09
2022-10-14T03:35:17.765Z,100888.25
2022-10-14T03:39:22.229Z,100887.03
2022-10-14T03:43:26.197Z,100878.31
2022-10-14T03:47:32.304Z,100890.59
2022-10-14T03:51:35.574Z,100891.22
2022-10-14T03:55:47.752Z,100882.38
2022-10-14T03:59:49.661Z,100894.16
2022-10-14T04:03:52.213Z,100894.34
2022-10-14T04:07:54.131Z,100890.56
2022-10-14T04:11:59.643Z,100885.34
2022-10-14T04:16:20.279Z,100871.88
2022-10-14T04:20:37.101Z,100867.47
2022-10-14T04:24:39.383Z,100867.38
2022-10-14T04:28:42.444Z,100861.97
2022-10-14T04:32:52.109Z,100860.53
2022-10-14T04:36:54.060Z,100849.72
2022-10-14T04:41:12.476Z,100840.28
2022-10-14T04:45:20.578Z,100838.66
2022-10-14T04:49:28.997Z,100836.16
2022-10-14T04:53:48.778Z,100835.44
2022-10-14T04:58:04.237Z,100839.44
2022-10-14T05:02:13.006Z,100840.63
2022-10-14T05:06:28.399Z,100834.34
2022-10-14T05:10:31.427Z,100848.44
2022-10-14T05:14:35.474Z,100849.91
2022-10-14T05:18:51.451Z,100848.47
2022-10-14T05:22:53.656Z,100846.22
2022-10-14T05:26:55.275Z,100838.09
2022-10-14T05:30:57.311Z,100839.91
2022-10-14T05:34:59.345Z,100831.28
2022-10-14T05:39:08.501Z,100828.91
2022-10-14T05:43:11.635Z,100850.34
2022-10-14T05:47:17.465Z,100839.44
2022-10-14T05:51:22.508Z,100832.84
2022-10-14T05:55:29.335Z,100830.75
2022-10-14T05:59:34.816Z,100815.69
2022-10-14T06:03:36.889Z,100810.09
2022-10-14T06:07:38.833Z,100808.63
2022-10-14T06:11:40.841Z,100808.09
2022-10-14T06:15:42.469Z,100810.13
2022-10-14T06:19:44.607Z,100816.94
2022-10-14T06:23:46.388Z,100823.66
2022-10-14T06:27:48.207Z,100824.66
2022-10-14T06:31:49.869Z,100821.16
2022-10-14T06:35:51.967Z,100813.66
2022-10-14T06:39:53.645Z,100809.50
2022-10-14T06:43:55.702Z,100819.91
2022-10-14T06:47:57.747Z,100816.00
2022-10-14T06:51:59.632Z,100819.56
2022-10-14T06:56:06.156Z,100810.00
2022-10-14T07:00:08.886Z,100816.84
2022-10-14T07:04:11.791Z,100812.31
2022-10-14T07:08:15.546Z,100813.84
2022-10-14T07:12:17.673Z,100822.81
2022-10-14T07:16:19.532Z,100819.91
2022-10-14T07:20:21.250Z,100814.47
2022-10-14T07:24:24.001Z,100808.56
2022-10-14T07:28:26.049Z,100801.06
2022-10-14T07:32:28.080Z,100796.63
2022-10-14T07:36:30.141Z,100798.34
2022-10-14T07:40:32.050Z,100796.72
2022-10-14T07:44:33.747Z,100801.50
2022-10-14T07:48:52.674Z,100799.72
2022-10-14T07:53:01.174Z,100794.66
2022-10-14T07:57:04.159Z,100792.59
2022-10-14T08:01:06.244Z,100790.25
2022-10-14T08:05:32.875Z,100788.69
2022-10-14T08:09:30.279Z,100775.69
2022-10-14T08:13:33.114Z,100792.47
2022-10-14T08:17:34.743Z,100806.53
2022-10-14T08:21:36.764Z,100813.47
2022-10-14T08:25:40.024Z,100814.38
2022-10-14T08:29:41.953Z,100818.00
2022-10-14T08:33:43.604Z,100832.19
2022-10-14T08:37:45.632Z,100840.16
2022-10-14T08:41:53.129Z,100869.63
2022-10-14T08:46:04.652Z,100876.59
2022-10-14T08:50:17.428Z,100868.88
2022-10-14T08:54:29.892Z,100875.38
2022-10-14T08:58:34.337Z,100869.34
2022-10-14T09:02:45.998Z,100871.09
2022-10-14T09:06:50.271Z,100870.41
2022-10-14T09:10:52.308Z,100870.81
2022-10-14T09:15:18.559Z,100874.81
2022-10-14T09:19:37.196Z,100884.09
2022-10-14T09:23:39.061Z,100897.03
2022-10-14T09:27:41.793Z,100890.13
2022-10-14T09:31:43.569Z,100884.94
2022-10-14T09:35:45.965Z,100892.59
2022-10-14T09:39:49.177Z,100888.16
2022-10-14T09:44:21.243Z,100886.50
2022-10-14T09:48:49.279Z,100891.16
2022-10-14T09:52:55.523Z,100893.66
2022-10-14T09:57:04.584Z,100887.75
2022-10-14T10:01:12.842Z,100888.16
2022-10-14T10:05:27.205Z,100893.63
2022-10-14T10:09:29.066Z,100891.31
2022-10-14T10:13:33.464Z,100875.16
2022-10-14T10:17:40.519Z,100885.19
2022-10-14T10:21:42.494Z,100871.56
2022-10-14T10:25:44.382Z,100872.59
2022-10-14T10:29:46.099Z,100873.34
2022-10-14T10:34:03.106Z,100865.50
2022-10-14T10:38:30.930Z,100862.97
2022-10-14T10:42:45.836Z,100867.09
2022-10-14T10:47:12.264Z,100860.84
2022-10-14T10:51:34.559Z,100864.00
2022-10-14T10:55:53.977Z,100855.34
2022-10-14T11:00:01.712Z,100852.72
2022-10-14T11:04:25.865Z,100854.59
2022-10-14T11:09:01.647Z,100850.50
2022-10-14T11:13:35.643Z,100848.66
2022-10-14T11:17:45.445Z,100842.75
2022-10-14T11:22:23.573Z,100853.47
2022-10-14T11:26:46.878Z,100833.22
2022-10-14T11:31:12.434Z,100839.31
2022-10-14T11:35:59.221Z,100829.53
2022-10-14T11:40:03.833Z,100821.72
2022-10-14T11:48:51.337Z,100823.34
2022-10-14T11:53:18.959Z,100808.56
2022-10-14T11:57:56.622Z,100799.41
2022-10-14T12:02:12.183Z,100797.72
2022-10-14T12:06:22.529Z,100797.22
2022-10-14T12:10:30.938Z,100793.63
2022-10-14T12:14:36.080Z,100786.63
2022-10-14T12:18:38.121Z,100787.47
2022-10-14T12:22:39.867Z,100789.53
2022-10-14T12:26:56.946Z,100791.34
2022-10-14T12:31:23.532Z,100782.53
2022-10-14T12:35:45.508Z,100778.94
2022-10-14T12:39:47.364Z,100771.69
2022-10-14T12:44:00.537Z,100773.88
2022-10-14T12:48:15.877Z,100765.19
2022-10-14T12:52:22.213Z,100764.13
2022-10-14T12:56:44.278Z,100782.72
2022-10-14T13:00:55.120Z,100780.41
2022-10-14T13:04:56.981Z,100773.56
2022-10-14T13:09:17.195Z,100765.38
2022-10-14T13:13:41.863Z,100766.94
2022-10-14T13:17:47.638Z,100768.38
2022-10-14T13:21:52.607Z,100757.41
2022-10-14T13:26:13.664Z,100754.16
2022-10-14T13:30:32.980Z,100752.19
2022-10-14T13:34:51.730Z,100747.41
2022-10-14T13:38:57.719Z,100742.94
2022-10-14T13:43:08.335Z,100736.56
2022-10-14T13:47:14.376Z,100742.91
2022-10-14T13:51:31.503Z,100729.00
2022-10-14T13:55:51.627Z,100738.31
2022-10-14T14:04:31.988Z,100743.06
2022-10-14T14:08:40.390Z,100730.78
2022-10-14T14:12:44.008Z,100734.56
2022-10-14T14:16:58.384Z,100737.03
2022-10-14T14:21:00.252Z,100737.72
2022-10-14T14:25:38.157Z,100729.69
2022-10-14T14:29:48.916Z,100728.34
2022-10-14T14:33:51.343Z,100717.03
2022-10-14T14:37:56.137Z,100705.31
2022-10-14T14:42:00.713Z,100693.91
2022-10-14T14:46:02.844Z,100690.84
2022-10-14T14:50:28.988Z,100696.13
2022-10-14T14:54:28.937Z,100692.03
2022-10-14T14:58:38.564Z,100690.97
2022-10-14T15:02:49.363Z,100693.75
2022-10-14T15:07:18.742Z,100682.28
2022-10-14T15:11:23.876Z,100674.25
2022-10-14T15:15:27.831Z,100677.97
2022-10-14T15:24:24.943Z,100653.81
2022-10-14T15:28:31.734Z,100653.78
2022-10-14T15:32:34.934Z,100655.81
2022-10-14T15:42:30.286Z,100646.22
2022-10-14T15:46:52.969Z,100633.34
2022-10-14T15:50:54.585Z,100641.69
2022-10-14T15:54:57.772Z,100631.44
2022-10-14T15:58:59.564Z,100623.84
2022-10-14T16:03:03.650Z,100624.16
2022-10-14T16:07:06.467Z,100631.16
2022-10-14T16:11:19.762Z,100633.78
2022-10-14T16:15:32.169Z,100629.25
2022-10-14T16:19:34.071Z,100634.09
2022-10-14T16:23:40.138Z,100629.22
2022-10-14T16:27:42.399Z,100631.53
2022-10-14T16:31:49.961Z,100623.59
2022-10-14T16:35:54.550Z,100629.00
2022-10-14T16:39:56.298Z,100622.88
2022-10-14T16:43:58.245Z,100628.78
2022-10-14T16:47:59.866Z,100615.38
2022-10-14T16:52:01.807Z,100618.75
2022-10-14T16:56:24.802Z,100611.88
2022-10-14T17:00:26.680Z,100625.56
2022-10-14T17:04:28.532Z,100622.63
2022-10-14T17:08:33.066Z,100624.63
2022-10-14T17:12:34.922Z,100626.13
2022-10-14T17:16:36.966Z,100626.53
2022-10-14T17:20:38.661Z,100616.63
2022-10-14T17:24:40.464Z,100615.78
2022-10-14T17:28:45.114Z,100615.22
2022-10-14T17:32:47.223Z,100611.94
2022-10-14T17:36:49.264Z,100614.69
2022-10-14T17:40:51.471Z,100606.97
2022-10-14T17:44:54.261Z,100610.13
2022-10-14T17:48:59.112Z,100607.59
2022-10-14T17:53:00.980Z,100604.31
2022-10-14T17:57:02.952Z,100599.06
2022-10-14T18:01:11.133Z,100599.25
2022-10-14T18:05:13.754Z,100593.19
2022-10-14T18:09:15.545Z,100595.53
2022-10-14T18:13:17.359Z,100593.72
2022-10-14T18:17:19.259Z,100588.94
2022-10-14T18:21:21.499Z,100587.78
2022-10-14T18:25:23.565Z,100586.09
2022-10-14T18:29:25.502Z,100582.91
2022-10-14T18:33:27.265Z,100574.34
2022-10-14T18:37:29.073Z,100584.44
2022-10-14T18:41:31.286Z,100583.22
2022-10-14T18:45:34.691Z,100587.38
2022-10-14T18:49:39.928Z,100586.91
2022-10-14T18:53:44.942Z,100578.53
2022-10-14T18:57:46.645Z,100577.25
2022-10-14T19:01:52.044Z,100572.75
2022-10-14T19:05:58.001Z,100582.69
2022-10-14T19:09:59.904Z,100581.03
2022-10-14T19:14:05.391Z,100582.53
2022-10-14T19:18:07.511Z,100580.63
2022-10-14T19:22:10.531Z,100588.53
2022-10-14T19:26:21.281Z,100580.63
2022-10-14T19:30:22.918Z,100568.81
2022-10-14T19:34:27.324Z,100577.56
2022-10-14T19:38:29.339Z,100577.66
2022-10-14T19:42:31.175Z,100571.44
2022-10-14T19:46:33.095Z,100577.81
2022-10-14T19:50:35.062Z,100578.69
2022-10-14T19:54:36.704Z,100572.28
2022-10-14T19:58:43.787Z,100564.59
2022-10-14T20:02:49.453Z,100572.00
2022-10-14T20:06:51.366Z,100569.47
2022-10-14T20:10:53.515Z,100581.97
2022-10-14T20:14:56.002Z,100581.00
2022-10-14T20:18:57.839Z,100578.66
2022-10-14T20:22:59.713Z,100580.66
2022-10-14T20:27:01.753Z,100579.25
2022-10-14T20:31:07.032Z,100577.47
2022-10-14T20:35:14.138Z,100578.00
2022-10-14T20:39:16.851Z,100573.88
2022-10-14T20:43:18.631Z,100581.84
2022-10-14T20:47:20.999Z,100574.31
2022-10-14T20:51:23.350Z,100572.75
2022-10-14T20:55:25.524Z,100575.06
2022-10-14T20:59:27.418Z,100573.56
2022-10-14T21:03:29.777Z,100579.75
2022-10-14T21:07:31.455Z,100584.97
2022-10-14T21:11:33.521Z,100588.63
2022-10-14T21:15:35.195Z,100576.97
2022-10-14T21:19:37.169Z,100578.34
2022-10-14T21:23:39.126Z,100582.47
2022-10-14T21:27:40.995Z,100575.97
2022-10-14T21:31:43.149Z,100571.81
2022-10-14T21:35:45.187Z,100563.53
2022-10-14T21:39:46.933Z,100568.44
2022-10-14T21:43:48.974Z,100579.44
2022-10-14T21:47:52.852Z,100583.88
2022-10-14T21:51:54.756Z,100583.94
2022-10-14T21:55:56.453Z,100591.41
2022-10-14T21:59:58.420Z,100589.63
2022-10-14T22:04:05.597Z,100596.41
2022-10-14T22:08:07.457Z,100593.94
2022-10-14T22:12:09.511Z,100591.81
2022-10-14T22:16:13.523Z,100578.72
2022-10-14T22:20:15.533Z,100578.44
2022-10-14T22:24:17.662Z,100574.53
2022-10-14T22:28:19.386Z,100572.41
2022-10-14T22:32:21.378Z,100563.16
2022-10-14T22:36:28.249Z,100567.97
2022-10-14T22:40:30.148Z,100574.47
2022-10-14T22:44:31.779Z,100580.56
2022-10-14T22:48:35.260Z,100573.88
2022-10-14T22:52:37.371Z,100579.66
2022-10-14T22:56:39.520Z,100572.56
2022-10-14T23:00:41.237Z,100568.78
2022-10-14T23:04:43.082Z,100563.69
2022-10-14T23:08:45.342Z,100571.19
2022-10-14T23:12:47.564Z,100572.75
2022-10-14T23:16:49.263Z,100578.84
2022-10-14T23:20:51.194Z,100572.22
2022-10-14T23:24:52.960Z,100575.16
2022-10-14T23:28:57.666Z,100583.31
2022-10-14T23:32:59.531Z,100586.16
2022-10-14T23:37:01.681Z,100588.34
2022-10-14T23:41:04.744Z,100583.50
2022-10-14T23:45:07.278Z,100576.09
2022-10-14T23:49:25.117Z,100580.97
2022-10-14T23:53:28.444Z,100568.53
2022-10-14T23:57:30.096Z,100575.66
